createdAt,value
2019-06-07T00:02:10.682Z,7.20
2019-06-07T00:04:37.527Z,6.00
2019-06-07T00:07:04.209Z,7.30
2019-06-07T00:09:30.930Z,6.10
2019-06-07T00:11:57.616Z,5.83
2019-06-07T00:14:24.324Z,7.40
2019-06-07T00:16:51.044Z,6.17
2019-06-07T00:19:18.987Z,5.97
2019-06-07T00:22:15.916Z,6.97
2019-06-07T00:24:16.876Z,6.43
2019-06-07T00:26:57.650Z,6.60
2019-06-07T00:29:15.364Z,8.43
2019-06-07T00:31:41.034Z,7.07
2019-06-07T00:34:10.310Z,7.33
2019-06-07T00:36:36.351Z,6.60
2019-06-07T00:39:05.309Z,7.30
2019-06-07T00:41:32.002Z,8.33
2019-06-07T00:43:59.073Z,6.63
2019-06-07T00:46:25.766Z,6.53
2019-06-07T00:48:52.520Z,7.67
2019-06-07T00:51:21.273Z,6.67
2019-06-07T00:53:48.099Z,5.67
2019-06-07T00:56:16.316Z,6.07
2019-06-07T00:58:43.107Z,6.13
2019-06-07T01:01:09.823Z,5.97
2019-06-07T01:03:36.536Z,6.07
2019-06-07T01:06:03.271Z,6.37
2019-06-07T01:08:30.355Z,5.87
2019-06-07T01:10:57.170Z,6.70
2019-06-07T01:13:26.643Z,6.43
2019-06-07T01:15:52.505Z,6.70
2019-06-07T01:18:37.373Z,6.87
2019-06-07T01:20:47.781Z,6.83
2019-06-07T01:23:54.309Z,6.07
2019-06-07T01:25:43.485Z,6.00
2019-06-07T01:28:10.219Z,6.77
2019-06-07T01:30:36.919Z,5.47
2019-06-07T01:33:03.641Z,6.30
2019-06-07T01:35:30.346Z,8.87
2019-06-07T01:37:57.049Z,6.43
2019-06-07T01:40:29.815Z,6.60
2019-06-07T01:42:52.447Z,7.40
2019-06-07T01:45:19.551Z,6.67
2019-06-07T01:47:46.880Z,6.93
2019-06-07T01:50:13.612Z,5.87
2019-06-07T01:52:40.303Z,7.00
2019-06-07T01:55:07.437Z,7.50
2019-06-07T01:57:47.715Z,5.70
2019-06-07T02:00:04.514Z,6.43
2019-06-07T02:02:31.904Z,6.60
2019-06-07T02:04:59.214Z,6.57
2019-06-07T02:07:30.350Z,6.20
2019-06-07T02:09:54.519Z,6.53
2019-06-07T02:12:27.948Z,6.33
2019-06-07T02:14:49.956Z,7.03
2019-06-07T02:17:17.160Z,6.00
2019-06-07T02:19:43.866Z,5.67
2019-06-07T02:22:10.567Z,5.60
2019-06-07T02:24:37.279Z,6.20
2019-06-07T02:27:03.992Z,6.07
2019-06-07T02:29:33.032Z,6.00
2019-06-07T02:31:59.300Z,5.60
2019-06-07T02:34:28.105Z,6.40
2019-06-07T02:36:54.604Z,5.80
2019-06-07T02:39:25.247Z,6.33
2019-06-07T02:41:49.924Z,7.33
2019-06-07T02:44:16.610Z,6.10
2019-06-07T02:46:48.926Z,6.03
2019-06-07T02:49:12.012Z,5.97
2019-06-07T02:51:41.345Z,6.67
2019-06-07T02:54:08.405Z,5.80
2019-06-07T02:56:48.860Z,6.00
2019-06-07T02:59:03.768Z,7.30
2019-06-07T03:01:32.439Z,6.13
2019-06-07T03:03:59.791Z,5.70
2019-06-07T03:06:29.865Z,5.20
2019-06-07T03:08:55.406Z,5.60
2019-06-07T03:11:22.103Z,6.17
2019-06-07T03:13:48.792Z,5.33
2019-06-07T03:16:26.195Z,6.03
2019-06-07T03:19:02.779Z,5.77
2019-06-07T03:21:31.322Z,5.50
2019-06-07T03:23:58.531Z,5.83
2019-06-07T03:26:25.334Z,6.30
2019-06-07T03:28:53.192Z,6.07
2019-06-07T03:31:19.884Z,5.93
2019-06-07T03:33:46.596Z,5.70
2019-06-07T03:36:23.703Z,6.47
2019-06-07T03:38:41.895Z,5.67
2019-06-07T03:41:08.608Z,6.40
2019-06-07T03:43:38.685Z,12.30
2019-06-07T03:46:04.257Z,6.63
2019-06-07T03:48:32.959Z,6.47
2019-06-07T03:51:04.658Z,8.37
2019-06-07T03:53:29.689Z,6.03
2019-06-07T03:55:56.828Z,6.40
2019-06-07T03:58:34.674Z,6.10
2019-06-07T04:00:52.505Z,6.27
2019-06-07T04:03:33.751Z,8.17
2019-06-07T04:05:48.935Z,6.63
2019-06-07T04:08:15.717Z,6.93
2019-06-07T04:10:58.435Z,13.17
2019-06-07T04:13:11.172Z,6.97
2019-06-07T04:15:40.940Z,8.20
2019-06-07T04:18:06.565Z,9.70
2019-06-07T04:20:35.725Z,8.93
2019-06-07T04:23:01.944Z,12.50
2019-06-07T04:25:29.087Z,16.23
2019-06-07T04:27:57.247Z,16.33
2019-06-07T04:30:41.796Z,12.20
2019-06-07T04:33:09.845Z,16.20
2019-06-07T04:35:40.000Z,14.43
2019-06-07T04:38:06.731Z,14.00
2019-06-07T04:40:34.346Z,13.57
2019-06-07T04:43:02.069Z,15.87
2019-06-07T04:45:40.046Z,13.97
2019-06-07T04:47:58.167Z,14.83
2019-06-07T04:50:24.867Z,15.13
2019-06-07T04:52:51.863Z,13.30
2019-06-07T04:55:18.584Z,13.20
2019-06-07T04:57:45.444Z,14.47
2019-06-07T05:00:46.175Z,13.83
2019-06-07T05:02:43.232Z,16.17
2019-06-07T05:05:09.518Z,16.03
2019-06-07T05:07:37.892Z,20.63
2019-06-07T05:10:04.842Z,15.37
2019-06-07T05:12:32.706Z,13.20
2019-06-07T05:15:00.152Z,14.80
2019-06-07T05:17:26.866Z,13.97
2019-06-07T05:19:53.557Z,15.97
2019-06-07T05:22:20.254Z,18.13
2019-06-07T05:24:47.270Z,16.50
2019-06-07T05:27:14.063Z,14.20
2019-06-07T05:29:43.797Z,20.40
2019-06-07T05:32:09.518Z,13.70
2019-06-07T05:34:36.941Z,16.77
2019-06-07T05:37:11.759Z,13.87
2019-06-07T05:39:36.857Z,14.70
2019-06-07T05:42:03.141Z,15.33
2019-06-07T05:44:29.829Z,14.70
2019-06-07T05:46:56.521Z,12.70
2019-06-07T05:49:23.256Z,13.57
2019-06-07T05:51:49.961Z,13.67
2019-06-07T05:54:16.697Z,14.20
2019-06-07T05:56:45.451Z,15.90
2019-06-07T05:59:12.069Z,13.33
2019-06-07T06:01:47.668Z,11.53
2019-06-07T06:04:07.413Z,12.00
2019-06-07T06:06:34.173Z,11.97
2019-06-07T06:09:13.315Z,11.83
2019-06-07T06:11:46.800Z,13.67
2019-06-07T06:14:07.435Z,10.20
2019-06-07T06:16:26.955Z,10.63
2019-06-07T06:18:53.722Z,9.50
2019-06-07T06:21:20.722Z,7.60
2019-06-07T06:23:48.838Z,6.87
2019-06-07T06:26:16.551Z,7.37
2019-06-07T06:28:45.271Z,5.70
2019-06-07T06:31:11.888Z,5.70
2019-06-07T06:33:39.616Z,9.23
2019-06-07T06:36:06.591Z,6.10
2019-06-07T06:38:33.653Z,7.27
2019-06-07T06:41:15.158Z,7.17
2019-06-07T06:43:29.995Z,6.23
2019-06-07T06:45:56.817Z,4.90
2019-06-07T06:48:23.579Z,7.23
2019-06-07T06:50:52.532Z,3.97
2019-06-07T06:53:19.116Z,4.67
2019-06-07T06:55:48.451Z,5.43
2019-06-07T06:58:15.067Z,4.20
2019-06-07T07:00:58.761Z,6.23
2019-06-07T07:03:56.611Z,4.30
2019-06-07T07:05:48.658Z,3.60
2019-06-07T07:08:13.462Z,4.13
2019-06-07T07:10:42.767Z,3.90
2019-06-07T07:13:10.076Z,2.90
2019-06-07T07:15:36.828Z,4.77
2019-06-07T07:18:08.773Z,3.53
2019-06-07T07:20:32.599Z,4.33
2019-06-07T07:22:59.418Z,6.17
2019-06-07T07:25:26.170Z,3.60
2019-06-07T07:27:55.286Z,4.17
2019-06-07T07:30:37.652Z,3.33
2019-06-07T07:33:06.443Z,3.77
2019-06-07T07:35:33.390Z,4.60
2019-06-07T07:38:00.310Z,5.73
2019-06-07T07:42:56.766Z,3.47
2019-06-07T07:45:23.757Z,3.97
2019-06-07T07:48:08.187Z,4.50
2019-06-07T07:50:20.630Z,5.90
2019-06-07T07:52:49.074Z,6.83
2019-06-07T07:55:15.947Z,4.67
2019-06-07T07:57:42.708Z,3.60
2019-06-07T08:00:48.623Z,3.70
2019-06-07T08:02:38.038Z,3.20
2019-06-07T08:07:33.906Z,3.60
2019-06-07T08:10:03.884Z,4.13
2019-06-07T08:12:29.772Z,7.40
2019-06-07T08:15:00.346Z,3.63
2019-06-07T08:17:25.138Z,3.20
2019-06-07T08:19:54.309Z,4.63
2019-06-07T08:22:20.749Z,2.90
2019-06-07T08:24:50.502Z,3.17
2019-06-07T08:27:26.077Z,3.27
2019-06-07T08:30:00.595Z,3.33
2019-06-07T08:32:14.048Z,2.80
2019-06-07T08:34:40.860Z,2.93
2019-06-07T08:37:07.555Z,6.87
2019-06-07T08:39:34.588Z,3.40
2019-06-07T08:42:15.230Z,3.33
2019-06-07T08:44:32.656Z,4.43
2019-06-07T08:47:16.731Z,4.90
2019-06-07T08:49:28.441Z,3.77
2019-06-07T08:52:04.572Z,3.73
2019-06-07T08:54:23.853Z,3.60
2019-06-07T08:56:53.701Z,3.50
2019-06-07T08:59:21.094Z,4.43
2019-06-07T09:01:49.867Z,3.63
2019-06-07T09:04:16.591Z,3.00
2019-06-07T09:09:12.244Z,4.40
2019-06-07T09:11:38.970Z,5.00
2019-06-07T09:14:09.020Z,4.53
2019-06-07T09:16:34.421Z,5.30
2019-06-07T09:19:06.717Z,3.57
2019-06-07T09:21:30.078Z,4.20
2019-06-07T09:24:00.320Z,2.67
2019-06-07T09:26:25.664Z,2.97
2019-06-07T09:28:52.353Z,4.40
2019-06-07T09:31:19.092Z,2.57
2019-06-07T09:33:45.814Z,3.93
2019-06-07T09:36:13.523Z,3.43
2019-06-07T09:38:40.738Z,3.90
2019-06-07T09:41:08.110Z,6.07
2019-06-07T09:46:11.837Z,4.17
2019-06-07T09:49:10.134Z,3.23
2019-06-07T09:51:09.547Z,2.77
2019-06-07T09:53:31.152Z,3.60
2019-06-07T09:56:02.921Z,2.93
2019-06-07T10:00:55.416Z,3.00
2019-06-07T10:03:24.324Z,4.40
2019-06-07T10:05:50.995Z,3.60
2019-06-07T10:09:26.223Z,4.60
2019-06-07T10:10:46.389Z,2.80
2019-06-07T10:13:13.066Z,3.17
2019-06-07T10:15:39.777Z,2.83
2019-06-07T10:18:07.126Z,3.77
2019-06-07T10:20:34.024Z,4.53
2019-06-07T10:23:01.629Z,3.10
2019-06-07T10:25:28.692Z,1.93
2019-06-07T10:27:55.779Z,2.63
2019-06-07T10:30:22.602Z,2.87
2019-06-07T10:32:52.140Z,2.30
2019-06-07T10:35:17.944Z,2.97
2019-06-07T10:37:44.991Z,3.50
2019-06-07T10:40:11.749Z,2.50
2019-06-07T10:42:38.451Z,2.90
2019-06-07T10:45:06.605Z,4.37
2019-06-07T10:47:34.103Z,3.10
2019-06-07T10:50:01.910Z,3.00
2019-06-07T10:52:28.799Z,2.90
2019-06-07T10:54:55.481Z,2.60
2019-06-07T10:57:22.252Z,2.50
2019-06-07T10:59:48.982Z,2.70
2019-06-07T11:02:15.655Z,4.47
2019-06-07T11:04:42.691Z,3.17
2019-06-07T11:07:10.086Z,3.67
2019-06-07T11:09:37.208Z,2.80
2019-06-07T11:12:04.368Z,3.20
2019-06-07T11:14:31.322Z,2.53
2019-06-07T11:16:58.076Z,3.80
2019-06-07T11:19:24.785Z,2.50
2019-06-07T11:21:51.620Z,2.30
2019-06-07T11:24:23.772Z,2.40
2019-06-07T11:26:47.049Z,4.77
2019-06-07T11:29:15.053Z,2.40
2019-06-07T11:31:41.938Z,3.30
2019-06-07T11:34:10.237Z,2.83
2019-06-07T11:36:37.522Z,2.90
2019-06-07T11:39:06.496Z,3.50
2019-06-07T11:41:33.219Z,2.53
2019-06-07T11:44:00.094Z,2.40
2019-06-07T11:46:27.005Z,2.63
2019-06-07T11:48:53.724Z,2.77
2019-06-07T11:51:20.548Z,2.87
2019-06-07T11:53:47.734Z,2.43
2019-06-07T11:56:16.002Z,2.67
2019-06-07T11:58:42.915Z,3.23
2019-06-07T12:01:09.778Z,2.20
2019-06-07T12:03:37.120Z,2.60
2019-06-07T12:06:03.836Z,2.53
2019-06-07T12:08:30.652Z,2.10
2019-06-07T12:10:57.375Z,2.23
2019-06-07T12:13:26.865Z,2.57
2019-06-07T12:15:54.236Z,2.27
2019-06-07T12:18:20.991Z,2.47
2019-06-07T12:20:47.687Z,2.13
2019-06-07T12:23:15.978Z,2.80
2019-06-07T12:25:43.375Z,3.00
2019-06-07T12:28:10.850Z,2.40
2019-06-07T12:30:38.007Z,4.93
2019-06-07T12:33:05.031Z,2.77
2019-06-07T12:35:32.175Z,2.73
2019-06-07T12:37:59.293Z,3.20
2019-06-07T12:40:31.900Z,3.73
2019-06-07T12:42:55.963Z,2.43
2019-06-07T12:45:43.761Z,3.77
2019-06-07T12:47:52.329Z,2.77
2019-06-07T12:50:21.670Z,3.00
2019-06-07T12:52:49.762Z,3.00
2019-06-07T12:55:18.112Z,6.00
2019-06-07T12:57:46.532Z,2.67
2019-06-07T13:00:14.284Z,12.10
2019-06-07T13:02:41.547Z,4.07
2019-06-07T13:05:08.273Z,3.23
2019-06-07T13:07:35.051Z,2.60
2019-06-07T13:10:01.799Z,4.57
2019-06-07T13:12:28.587Z,2.70
2019-06-07T13:14:55.509Z,3.27
2019-06-07T13:17:22.345Z,3.03
2019-06-07T13:19:49.314Z,6.47
2019-06-07T13:22:16.215Z,5.63
2019-06-07T13:24:42.889Z,3.57
2019-06-07T13:27:09.749Z,4.40
2019-06-07T13:29:36.790Z,3.10
2019-06-07T13:32:03.535Z,3.10
2019-06-07T13:34:30.222Z,4.23
2019-06-07T13:36:56.908Z,3.23
2019-06-07T13:39:27.535Z,5.43
2019-06-07T13:41:52.436Z,4.57
2019-06-07T13:44:20.865Z,2.90
2019-06-07T13:46:47.855Z,5.80
2019-06-07T13:49:14.579Z,5.23
2019-06-07T13:51:41.461Z,2.80
2019-06-07T13:54:08.170Z,2.80
2019-06-07T13:56:34.893Z,3.10
2019-06-07T13:59:01.644Z,6.03
2019-06-07T14:01:29.014Z,3.57
2019-06-07T14:03:56.172Z,3.50
2019-06-07T14:06:23.449Z,3.30
2019-06-07T14:08:50.301Z,3.93
2019-06-07T14:11:17.531Z,3.93
2019-06-07T14:13:44.213Z,2.90
2019-06-07T14:16:11.093Z,3.20
2019-06-07T14:18:37.771Z,3.30
2019-06-07T14:21:04.482Z,5.00
2019-06-07T14:23:47.453Z,3.60
2019-06-07T14:26:00.577Z,3.10
2019-06-07T14:28:31.832Z,4.10
2019-06-07T14:30:56.557Z,5.93
2019-06-07T14:33:26.131Z,3.13
2019-06-07T14:35:51.919Z,2.90
2019-06-07T14:38:18.682Z,3.90
2019-06-07T14:40:47.818Z,2.93
2019-06-07T14:43:14.783Z,2.90
2019-06-07T14:45:41.984Z,4.03
2019-06-07T14:48:08.727Z,3.60
2019-06-07T14:50:35.467Z,3.23
2019-06-07T14:53:02.348Z,3.70
2019-06-07T14:55:32.964Z,7.53
2019-06-07T14:58:00.250Z,4.40
2019-06-07T15:00:38.974Z,3.77
2019-06-07T15:03:05.732Z,3.90
2019-06-07T15:05:32.868Z,6.47
2019-06-07T15:07:59.666Z,5.80
2019-06-07T15:10:26.697Z,8.03
2019-06-07T15:12:53.810Z,8.20
2019-06-07T15:15:20.649Z,4.00
2019-06-07T15:17:47.477Z,3.60
2019-06-07T15:20:14.317Z,2.40
2019-06-07T15:22:41.401Z,6.90
2019-06-07T15:25:08.133Z,3.17
2019-06-07T15:27:35.343Z,4.03
2019-06-07T15:30:10.052Z,5.20
2019-06-07T15:32:32.683Z,2.63
2019-06-07T15:34:59.766Z,2.43
2019-06-07T15:37:26.548Z,8.07
2019-06-07T15:39:53.282Z,4.00
2019-06-07T15:42:20.126Z,2.13
2019-06-07T15:44:46.831Z,3.80
2019-06-07T15:47:13.688Z,16.77
2019-06-07T15:49:40.440Z,11.67
2019-06-07T15:52:07.155Z,10.20
2019-06-07T15:54:34.390Z,6.00
2019-06-07T15:57:01.213Z,2.60
2019-06-07T15:59:28.037Z,3.73
2019-06-07T16:01:54.869Z,9.40
2019-06-07T16:04:21.590Z,9.30
2019-06-07T16:06:48.328Z,3.30
2019-06-07T16:09:15.035Z,2.07
2019-06-07T16:11:43.470Z,3.97
2019-06-07T16:14:10.542Z,2.07
2019-06-07T16:16:37.282Z,1.90
2019-06-07T16:19:05.669Z,6.00
2019-06-07T16:21:35.270Z,1.23
2019-06-07T16:24:02.152Z,2.53
2019-06-07T16:26:28.865Z,2.60
2019-06-07T16:28:57.334Z,2.53
2019-06-07T16:31:25.410Z,5.07
2019-06-07T16:33:54.647Z,1.77
2019-06-07T16:36:21.456Z,6.23
2019-06-07T16:38:49.387Z,5.37
2019-06-07T16:41:16.092Z,1.40
2019-06-07T16:43:44.801Z,4.00
2019-06-07T16:46:11.811Z,1.77
2019-06-07T16:48:40.868Z,1.10
2019-06-07T16:51:07.869Z,2.20
2019-06-07T16:53:34.588Z,7.00
2019-06-07T16:56:01.326Z,6.63
2019-06-07T16:58:28.023Z,3.37
2019-06-07T17:00:54.808Z,6.23
2019-06-07T17:03:21.565Z,1.20
2019-06-07T17:05:50.481Z,3.93
2019-06-07T17:08:17.083Z,4.33
2019-06-07T17:10:44.248Z,1.77
2019-06-07T17:13:32.074Z,3.57
2019-06-07T17:15:45.265Z,5.10
2019-06-07T17:18:12.010Z,5.53
2019-06-07T17:20:39.125Z,9.27
2019-06-07T17:23:05.802Z,11.17
2019-06-07T17:25:32.555Z,5.13
2019-06-07T17:27:59.286Z,4.43
2019-06-07T17:30:25.979Z,4.30
2019-06-07T17:32:58.924Z,4.00
2019-06-07T17:35:21.770Z,1.60
2019-06-07T17:37:49.688Z,1.00
2019-06-07T17:40:17.208Z,1.73
2019-06-07T17:42:44.827Z,4.77
2019-06-07T17:45:11.595Z,4.47
2019-06-07T17:47:38.296Z,6.47
2019-06-07T17:50:05.238Z,1.50
2019-06-07T17:52:32.061Z,1.43
2019-06-07T17:54:58.784Z,1.20
2019-06-07T17:57:25.801Z,1.50
2019-06-07T18:00:27.068Z,1.17
2019-06-07T18:02:31.860Z,1.83
2019-06-07T18:04:58.577Z,1.67
2019-06-07T18:07:25.291Z,1.47
2019-06-07T18:09:53.658Z,3.17
2019-06-07T18:12:20.749Z,2.60
2019-06-07T18:14:47.970Z,3.90
2019-06-07T18:17:14.774Z,3.83
2019-06-07T18:19:41.510Z,1.23
2019-06-07T18:22:08.237Z,1.30
2019-06-07T18:24:35.045Z,1.70
2019-06-07T18:27:01.790Z,2.20
2019-06-07T18:29:28.518Z,1.37
2019-06-07T18:31:55.390Z,1.63
2019-06-07T18:34:23.654Z,2.40
2019-06-07T18:36:51.076Z,1.80
2019-06-07T18:39:21.511Z,3.00
2019-06-07T18:41:49.070Z,1.50
2019-06-07T18:44:21.750Z,3.30
2019-06-07T18:46:46.026Z,2.63
2019-06-07T18:49:12.982Z,1.60
2019-06-07T18:51:39.704Z,4.63
2019-06-07T18:54:06.452Z,3.23
2019-06-07T18:56:33.656Z,2.37
2019-06-07T18:59:02.357Z,2.63
2019-06-07T19:01:29.074Z,1.27
2019-06-07T19:03:56.213Z,4.37
2019-06-07T19:06:23.671Z,6.07
2019-06-07T19:08:54.750Z,1.23
2019-06-07T19:11:19.596Z,5.60
2019-06-07T19:13:46.880Z,1.20
2019-06-07T19:16:13.615Z,3.13
2019-06-07T19:18:40.506Z,1.40
2019-06-07T19:21:07.230Z,1.30
2019-06-07T19:23:34.553Z,3.23
2019-06-07T19:26:01.322Z,1.40
2019-06-07T19:28:28.098Z,1.43
2019-06-07T19:30:55.144Z,5.13
2019-06-07T19:33:22.190Z,1.37
2019-06-07T19:35:48.947Z,2.23
2019-06-07T19:38:17.106Z,2.50
2019-06-07T19:40:44.204Z,2.37
2019-06-07T19:43:10.943Z,3.33
2019-06-07T19:45:37.955Z,1.20
2019-06-07T19:48:04.708Z,1.30
2019-06-07T19:50:31.838Z,1.43
2019-06-07T19:52:59.212Z,1.30
2019-06-07T19:55:27.596Z,2.03
2019-06-07T19:57:59.888Z,2.70
2019-06-07T20:00:26.638Z,1.53
2019-06-07T20:02:53.701Z,1.30
2019-06-07T20:05:20.511Z,1.00
2019-06-07T20:07:47.241Z,3.80
2019-06-07T20:10:14.026Z,0.70
2019-06-07T20:12:40.792Z,1.50
2019-06-07T20:15:27.027Z,1.13
2019-06-07T20:17:36.158Z,2.23
2019-06-07T20:20:04.648Z,1.70
2019-06-07T20:22:32.028Z,1.30
2019-06-07T20:24:58.871Z,1.40
2019-06-07T20:27:25.595Z,2.00
2019-06-07T20:29:52.342Z,0.97
2019-06-07T20:32:19.080Z,1.60
2019-06-07T20:34:45.799Z,0.80
2019-06-07T20:37:12.554Z,1.10
2019-06-07T20:39:39.292Z,3.43
2019-06-07T20:42:06.116Z,1.33
2019-06-07T20:44:32.844Z,1.00
2019-06-07T20:46:59.984Z,1.17
2019-06-07T20:49:26.911Z,3.17
2019-06-07T20:51:53.638Z,0.97
2019-06-07T20:54:20.399Z,1.00
2019-06-07T20:56:47.208Z,1.30
2019-06-07T20:59:13.961Z,0.90
2019-06-07T21:01:42.820Z,1.47
2019-06-07T21:04:09.763Z,1.53
2019-06-07T21:06:36.480Z,1.10
2019-06-07T21:09:06.003Z,1.20
2019-06-07T21:11:32.730Z,1.10
2019-06-07T21:14:02.028Z,0.97
2019-06-07T21:16:28.810Z,1.20
2019-06-07T21:18:55.552Z,1.00
2019-06-07T21:21:22.244Z,2.17
2019-06-07T21:23:49.035Z,1.33
2019-06-07T21:26:15.763Z,1.70
2019-06-07T21:28:42.586Z,1.10
2019-06-07T21:31:10.478Z,2.90
2019-06-07T21:33:39.713Z,1.23
2019-06-07T21:36:07.792Z,2.30
2019-06-07T21:38:35.078Z,2.83
2019-06-07T21:41:02.163Z,1.20
2019-06-07T21:43:29.042Z,2.50
2019-06-07T21:46:05.400Z,1.20
2019-06-07T21:48:24.901Z,0.90
2019-06-07T21:50:51.947Z,2.30
2019-06-07T21:53:18.780Z,1.97
2019-06-07T21:55:52.594Z,1.47
2019-06-07T21:58:19.738Z,1.63
2019-06-07T22:01:12.086Z,1.43
2019-06-07T22:03:39.172Z,1.20
2019-06-07T22:06:07.616Z,1.30
2019-06-07T22:08:34.636Z,2.50
2019-06-07T22:11:08.189Z,1.30
2019-06-07T22:13:35.212Z,1.43
2019-06-07T22:16:02.433Z,1.30
2019-06-07T22:18:29.286Z,1.50
2019-06-07T22:20:55.999Z,2.17
2019-06-07T22:23:22.736Z,2.80
2019-06-07T22:25:49.833Z,6.00
2019-06-07T22:28:16.672Z,4.03
2019-06-07T22:30:43.415Z,1.47
2019-06-07T22:33:10.639Z,2.53
2019-06-07T22:35:37.554Z,1.10
2019-06-07T22:38:05.958Z,1.57
2019-06-07T22:40:33.064Z,3.67
2019-06-07T22:43:00.003Z,3.03
2019-06-07T22:45:29.817Z,2.03
2019-06-07T22:47:56.539Z,2.00
2019-06-07T22:50:23.259Z,3.27
2019-06-07T22:52:49.981Z,2.53
2019-06-07T22:55:16.670Z,1.27
2019-06-07T22:57:56.422Z,2.70
2019-06-07T23:00:23.843Z,1.30
2019-06-07T23:02:50.590Z,1.30
2019-06-07T23:05:17.419Z,3.53
2019-06-07T23:07:44.109Z,1.63
2019-06-07T23:10:11.310Z,5.63
2019-06-07T23:12:38.169Z,2.07
2019-06-07T23:15:05.201Z,2.60
2019-06-07T23:17:31.928Z,3.93
2019-06-07T23:19:58.631Z,6.40
2019-06-07T23:22:25.466Z,2.33
2019-06-07T23:24:52.200Z,1.20
2019-06-07T23:27:26.979Z,1.10
2019-06-07T23:30:08.288Z,2.63
2019-06-07T23:32:38.774Z,4.00
2019-06-07T23:37:53.827Z,3.03
2019-06-07T23:40:21.570Z,2.30
2019-06-07T23:42:48.427Z,1.30
2019-06-07T23:45:15.526Z,2.53
2019-06-07T23:47:42.373Z,1.53
2019-06-07T23:50:09.511Z,2.20
2019-06-07T23:52:36.224Z,1.90
2019-06-07T23:55:03.405Z,2.70
2019-06-07T23:57:30.095Z,2.00
2019-06-07T23:59:56.797Z,5.23
